Time;durP1;ratioP1;P1;durP2;ratioP2;P2;SDS_P1;SDS_P2;PMS_P1;PMS_P2;Temp;Humidity;BMP_temperature;BMP_pressure;BME280_temperature;BME280_humidity;BME280_pressure;Samples;Min_cycle;Max_cycle;Signal;HPM_P1;HPM_P2
2022/02/24 00:01:00;;;;;;;1.30;1.00;;;;;18.40;100619.00;;;;2074552;28;20210;-59
2022/02/24 00:02:00;;;;;;;1.83;1.37;;;;;18.40;100582.00;;;;2075664;28;20218;-59
2022/02/24 00:03:00;;;;;;;1.30;0.97;;;;;18.40;100621.00;;;;2074624;28;20289;-59
2022/02/24 00:04:01;;;;;;;2.03;1.00;;;;;18.40;100619.00;;;;2075494;28;20224;-59
2022/02/24 00:05:01;;;;;;;1.40;0.93;;;;;18.40;100610.00;;;;2069206;28;20212;-59
2022/02/24 00:06:01;;;;;;;1.37;1.10;;;;;18.40;100612.00;;;;2082284;28;20258;-59
2022/02/24 00:07:02;;;;;;;1.30;0.80;;;;;18.40;100607.00;;;;2074068;28;20214;-59
2022/02/24 00:08:02;;;;;;;1.70;1.03;;;;;18.40;100610.00;;;;2073877;28;20756;-59
2022/02/24 00:09:03;;;;;;;2.57;1.40;;;;;18.40;100610.00;;;;2075320;28;20290;-59
2022/02/24 00:10:05;;;;;;;1.90;1.00;;;;;18.40;100602.00;;;;2074311;28;20224;-59
2022/02/24 00:11:05;;;;;;;1.10;0.90;;;;;18.40;100594.00;;;;2074295;28;20464;-59
2022/02/24 00:12:06;;;;;;;1.30;0.90;;;;;18.40;100607.00;;;;2076304;28;20213;-59
2022/02/24 00:13:06;;;;;;;1.77;1.30;;;;;18.40;100593.00;;;;2075873;28;20719;-59
2022/02/24 00:14:06;;;;;;;1.47;1.20;;;;;18.40;100591.00;;;;2076940;28;20816;-59
2022/02/24 00:15:07;;;;;;;1.60;1.00;;;;;18.40;100593.00;;;;2077119;28;20268;-59
2022/02/24 00:16:08;;;;;;;1.40;0.90;;;;;18.40;100600.00;;;;2077168;28;20226;-59
2022/02/24 00:17:08;;;;;;;1.50;0.87;;;;;18.40;100590.00;;;;2077374;28;20984;-59
2022/02/24 00:18:08;;;;;;;1.20;0.80;;;;;18.40;100600.00;;;;2075535;28;20264;-59
2022/02/24 00:19:09;;;;;;;2.70;1.07;;;;;18.40;100592.00;;;;2067291;28;20697;-59
2022/02/24 00:20:10;;;;;;;1.63;0.90;;;;;18.40;100593.00;;;;2075443;28;20845;-59
2022/02/24 00:21:10;;;;;;;2.60;1.20;;;;;18.40;100596.00;;;;2075955;28;20288;-59
2022/02/24 00:22:10;;;;;;;2.10;1.20;;;;;18.40;100573.00;;;;2076593;28;20222;-59
2022/02/24 00:23:11;;;;;;;1.83;1.10;;;;;18.20;100594.00;;;;2076847;28;20279;-59
2022/02/24 00:24:11;;;;;;;1.30;0.93;;;;;18.40;100588.00;;;;2076826;28;20219;-59
2022/02/24 00:25:11;;;;;;;2.23;1.30;;;;;18.40;100582.00;;;;2077013;28;20224;-59
2022/02/24 00:26:12;;;;;;;1.67;1.27;;;;;18.40;100573.00;;;;2076955;28;20256;-59
2022/02/24 00:27:12;;;;;;;1.70;1.00;;;;;18.30;100581.00;;;;2076219;28;20218;-59
2022/02/24 00:28:12;;;;;;;1.37;1.00;;;;;18.40;100583.00;;;;2075949;28;20583;-59
2022/02/24 00:29:13;;;;;;;1.30;1.00;;;;;18.30;100572.00;;;;2076204;28;20233;-59
2022/02/24 00:30:13;;;;;;;1.10;0.80;;;;;18.40;100576.00;;;;2076260;28;20210;-59
2022/02/24 00:31:13;;;;;;;1.20;1.00;;;;;18.40;100571.00;;;;2076790;28;20264;-59
2022/02/24 00:32:14;;;;;;;2.00;1.00;;;;;18.40;100580.00;;;;2077017;28;20218;-59
2022/02/24 00:33:14;;;;;;;1.10;1.00;;;;;18.40;100572.00;;;;2072588;28;20258;-59
2022/02/24 00:34:15;;;;;;;1.50;1.00;;;;;18.40;100577.00;;;;2075852;28;20210;-59
2022/02/24 00:35:15;;;;;;;1.00;0.90;;;;;18.40;100578.00;;;;2076758;28;20214;-59
2022/02/24 00:36:16;;;;;;;2.23;1.40;;;;;18.40;100574.00;;;;2076978;28;20453;-59
2022/02/24 00:37:16;;;;;;;1.73;1.00;;;;;18.40;100573.00;;;;2077002;28;20210;-59
2022/02/24 00:38:16;;;;;;;1.47;1.17;;;;;18.40;100571.00;;;;2077015;28;20334;-59
2022/02/24 00:39:17;;;;;;;1.57;1.23;;;;;18.40;100569.00;;;;2076649;28;20245;-59
2022/02/24 00:40:17;;;;;;;1.10;1.00;;;;;18.40;100571.00;;;;2069950;28;20263;-59
2022/02/24 00:41:18;;;;;;;2.00;1.20;;;;;18.30;100569.00;;;;2076819;28;20273;-59
2022/02/24 00:42:18;;;;;;;2.83;1.33;;;;;18.40;100569.00;;;;2077044;28;20304;-59
2022/02/24 00:43:19;;;;;;;1.83;1.03;;;;;18.30;100563.00;;;;2076434;28;20464;-59
2022/02/24 00:44:19;;;;;;;1.30;1.17;;;;;18.40;100561.00;;;;2075948;28;20260;-59
2022/02/24 00:45:19;;;;;;;1.33;1.00;;;;;18.30;100565.00;;;;2076191;28;20220;-59
2022/02/24 00:46:20;;;;;;;2.97;1.23;;;;;18.40;100574.00;;;;2076169;28;20243;-59
2022/02/24 00:47:20;;;;;;;1.30;0.93;;;;;18.40;100567.00;;;;2076080;28;20214;-59
2022/02/24 00:48:20;;;;;;;1.70;1.20;;;;;18.40;100572.00;;;;2076192;28;20226;-59
2022/02/24 00:49:22;;;;;;;1.40;1.00;;;;;18.40;100573.00;;;;2076813;28;20229;-59
2022/02/24 00:50:22;;;;;;;2.20;1.10;;;;;18.40;100565.00;;;;2076602;28;20222;-59
2022/02/24 00:51:23;;;;;;;1.80;1.00;;;;;18.40;100563.00;;;;2076145;28;20221;-59
2022/02/24 00:52:23;;;;;;;1.70;1.30;;;;;18.40;100554.00;;;;2075327;28;20236;-59
2022/02/24 00:53:24;;;;;;;1.93;1.23;;;;;18.30;100571.00;;;;2075135;28;20308;-59
2022/02/24 00:54:24;;;;;;;1.80;1.20;;;;;18.30;100568.00;;;;2067188;28;20242;-59
2022/02/24 00:55:25;;;;;;;1.63;1.17;;;;;18.30;100563.00;;;;2075418;28;20206;-59
2022/02/24 00:56:26;;;;;;;1.88;1.20;;;;;18.40;100556.00;;;;2076555;28;20213;-59
2022/02/24 00:57:26;;;;;;;1.30;0.90;;;;;18.40;100562.00;;;;2075928;28;20202;-59
2022/02/24 00:58:26;;;;;;;1.67;1.23;;;;;18.40;100560.00;;;;2076066;28;20208;-59
2022/02/24 00:59:27;;;;;;;1.43;1.10;;;;;18.30;100564.00;;;;2075917;28;20195;-59
2022/02/24 01:00:27;;;;;;;2.00;1.40;;;;;18.40;100564.00;;;;2075566;28;20250;-59
2022/02/24 01:01:27;;;;;;;1.63;1.10;;;;;18.40;100561.00;;;;2075727;28;20210;-59
2022/02/24 01:02:28;;;;;;;1.90;1.23;;;;;18.30;100560.00;;;;2075666;28;20206;-59
2022/02/24 01:03:28;;;;;;;1.37;1.03;;;;;18.40;100550.00;;;;2076176;28;20209;-59
2022/02/24 01:04:28;;;;;;;1.97;1.27;;;;;18.40;100564.00;;;;2075267;28;20241;-59
2022/02/24 01:05:29;;;;;;;1.40;1.10;;;;;18.30;100553.00;;;;2075325;28;20279;-59
2022/02/24 01:06:29;;;;;;;1.00;0.90;;;;;18.30;100550.00;;;;2075641;28;20217;-59
2022/02/24 01:07:29;;;;;;;1.10;1.00;;;;;18.30;100545.00;;;;2075388;28;20253;-59
2022/02/24 01:08:30;;;;;;;1.10;0.90;;;;;18.30;100550.00;;;;2075365;28;20218;-59
2022/02/24 01:09:30;;;;;;;1.07;0.90;;;;;18.30;100544.00;;;;2076174;28;20214;-59
2022/02/24 01:10:30;;;;;;;1.40;1.17;;;;;18.30;100540.00;;;;2076334;28;20210;-59
2022/02/24 01:11:30;;;;;;;1.70;1.20;;;;;18.30;100545.00;;;;2076475;28;20272;-59
2022/02/24 01:12:31;;;;;;;2.10;0.90;;;;;18.30;100536.00;;;;2076374;28;20209;-59
2022/02/24 01:13:31;;;;;;;1.60;1.20;;;;;18.30;100544.00;;;;2075664;28;20248;-59
2022/02/24 01:14:31;;;;;;;1.20;0.90;;;;;18.30;100543.00;;;;2075525;28;20218;-59
2022/02/24 01:15:32;;;;;;;1.40;1.30;;;;;18.40;100529.00;;;;2075601;28;20213;-59
2022/02/24 01:16:32;;;;;;;1.70;1.03;;;;;18.30;100541.00;;;;2075572;28;20202;-59
2022/02/24 01:17:35;;;;;;;1.30;0.80;;;;;18.30;100536.00;;;;2076217;28;20206;-59
2022/02/24 01:18:36;;;;;;;1.75;1.25;;;;;18.30;100529.00;;;;2076556;28;20276;-59
2022/02/24 01:19:36;;;;;;;2.23;1.00;;;;;18.30;100525.00;;;;2076505;28;20210;-59
2022/02/24 01:20:36;;;;;;;1.57;1.20;;;;;18.30;100534.00;;;;2075079;28;20251;-59
2022/02/24 01:21:37;;;;;;;1.50;1.00;;;;;18.30;100523.00;;;;2075070;28;20214;-59
2022/02/24 01:22:37;;;;;;;1.90;1.10;;;;;18.30;100528.00;;;;2075274;28;20201;-59
2022/02/24 01:23:38;;;;;;;2.63;1.60;;;;;18.30;100520.00;;;;2075655;28;20232;-59
2022/02/24 01:24:38;;;;;;;1.80;1.40;;;;;18.30;100518.00;;;;2075922;28;20222;-59
2022/02/24 01:25:38;;;;;;;1.63;1.00;;;;;18.30;100522.00;;;;2076055;28;20225;-59
2022/02/24 01:26:39;;;;;;;2.17;1.27;;;;;18.30;100518.00;;;;2076556;28;20278;-59
2022/02/24 01:27:42;;;;;;;1.40;1.20;;;;;18.30;100524.00;;;;2076680;28;21269;-59
2022/02/24 01:28:42;;;;;;;1.30;1.10;;;;;18.30;100525.00;;;;2076523;28;20276;-59
2022/02/24 01:29:42;;;;;;;1.33;1.00;;;;;18.30;100519.00;;;;2073599;28;20210;-59
2022/02/24 01:30:43;;;;;;;1.50;0.90;;;;;18.30;100521.00;;;;2075477;28;20209;-59
2022/02/24 01:31:43;;;;;;;1.10;0.87;;;;;18.30;100517.00;;;;2075785;28;20213;-59
2022/02/24 01:32:43;;;;;;;1.50;1.10;;;;;18.30;100512.00;;;;2075646;28;20210;-59
2022/02/24 01:33:44;;;;;;;1.73;1.10;;;;;18.30;100514.00;;;;2075916;28;20214;-59
2022/02/24 01:34:44;;;;;;;2.07;1.10;;;;;18.30;100512.00;;;;2073110;28;20242;-59
2022/02/24 01:35:44;;;;;;;1.30;0.90;;;;;18.30;100512.00;;;;2075238;28;20214;-59
2022/02/24 01:36:45;;;;;;;1.63;1.03;;;;;18.30;100512.00;;;;2075897;28;20244;-59
2022/02/24 01:37:46;;;;;;;1.42;0.90;;;;;18.30;100508.00;;;;2076333;28;20214;-59
2022/02/24 01:38:46;;;;;;;1.20;0.90;;;;;18.30;100496.00;;;;2075161;28;20241;-59
2022/02/24 01:39:46;;;;;;;2.43;1.27;;;;;18.30;100510.00;;;;2072012;28;20220;-59
2022/02/24 01:40:47;;;;;;;1.10;0.90;;;;;18.30;100500.00;;;;2074969;28;20214;-59
2022/02/24 01:41:48;;;;;;;1.53;1.10;;;;;18.30;100508.00;;;;2071130;28;20214;-59
2022/02/24 01:42:48;;;;;;;2.05;1.10;;;;;18.30;100504.00;;;;2075730;28;20230;-59
2022/02/24 01:43:48;;;;;;;1.70;1.20;;;;;18.30;100492.00;;;;2076428;28;20225;-59
2022/02/24 01:44:49;;;;;;;1.50;1.10;;;;;18.30;100495.00;;;;2074292;28;20210;-59
2022/02/24 01:45:49;;;;;;;1.30;0.93;;;;;18.30;100497.00;;;;2075657;28;20213;-59
2022/02/24 01:46:50;;;;;;;1.83;1.20;;;;;18.30;100491.00;;;;2076064;28;20236;-59
2022/02/24 01:47:50;;;;;;;1.50;1.10;;;;;18.30;100500.00;;;;2075716;28;20214;-59
2022/02/24 01:48:50;;;;;;;2.33;1.50;;;;;18.30;100485.00;;;;2075660;28;20604;-59
2022/02/24 01:49:50;;;;;;;2.33;1.10;;;;;18.30;100492.00;;;;2073077;28;20690;-59
2022/02/24 01:50:51;;;;;;;1.50;1.10;;;;;18.30;100489.00;;;;2075644;28;20752;-59
2022/02/24 01:51:51;;;;;;;2.50;1.43;;;;;18.30;100484.00;;;;2075620;28;20245;-59
2022/02/24 01:52:52;;;;;;;1.77;1.30;;;;;18.30;100477.00;;;;2075738;28;20217;-59
2022/02/24 01:53:52;;;;;;;1.33;0.97;;;;;18.30;100467.00;;;;2075733;28;20217;-59
2022/02/24 01:54:52;;;;;;;1.97;1.17;;;;;18.30;100475.00;;;;2075811;28;20210;-59
2022/02/24 01:55:52;;;;;;;1.97;1.00;;;;;18.30;100475.00;;;;2074914;28;20214;-59
2022/02/24 01:56:53;;;;;;;1.63;1.00;;;;;18.30;100475.00;;;;2075016;28;20581;-59
2022/02/24 01:57:53;;;;;;;2.13;1.00;;;;;18.30;100472.00;;;;2075303;28;20779;-59
2022/02/24 01:58:54;;;;;;;1.57;1.10;;;;;18.30;100469.00;;;;2075685;28;20689;-60
2022/02/24 01:59:55;;;;;;;1.80;1.17;;;;;18.30;100470.00;;;;2075071;28;20267;-59
2022/02/24 02:00:55;;;;;;;1.30;1.00;;;;;18.30;100464.00;;;;2075199;28;20460;-59
2022/02/24 02:01:56;;;;;;;1.93;1.03;;;;;18.30;100471.00;;;;2074644;28;20263;-59
2022/02/24 02:02:56;;;;;;;1.20;1.00;;;;;18.30;100472.00;;;;2066593;28;20211;-59
2022/02/24 02:03:57;;;;;;;2.20;1.00;;;;;18.30;100467.00;;;;2071635;28;20258;-59
2022/02/24 02:04:57;;;;;;;1.20;0.93;;;;;18.30;100470.00;;;;2073239;28;20847;-59
2022/02/24 02:05:57;;;;;;;1.57;1.00;;;;;18.30;100467.00;;;;2076190;28;20218;-59
2022/02/24 02:06:58;;;;;;;1.60;1.10;;;;;18.30;100466.00;;;;2075862;28;20237;-59
2022/02/24 02:07:58;;;;;;;1.70;1.10;;;;;18.30;100459.00;;;;2074723;28;20704;-59
2022/02/24 02:08:59;;;;;;;2.17;1.20;;;;;18.30;100461.00;;;;2074096;28;20632;-59
2022/02/24 02:09:59;;;;;;;1.80;1.00;;;;;18.30;100462.00;;;;2061234;28;20225;-59
2022/02/24 02:10:59;;;;;;;1.80;1.13;;;;;18.30;100461.00;;;;2065986;28;20223;-59
2022/02/24 02:12:00;;;;;;;1.47;1.00;;;;;18.30;100470.00;;;;2074668;28;20250;-59
2022/02/24 02:13:00;;;;;;;1.50;1.30;;;;;18.30;100463.00;;;;2075845;28;20210;-59
2022/02/24 02:14:00;;;;;;;2.00;1.17;;;;;18.30;100460.00;;;;2076186;28;20214;-59
2022/02/24 02:15:02;;;;;;;1.60;0.90;;;;;18.30;100461.00;;;;2073505;28;20697;-59
2022/02/24 02:16:03;;;;;;;1.58;1.17;;;;;18.30;100462.00;;;;2076096;28;20781;-59
2022/02/24 02:17:04;;;;;;;1.33;0.90;;;;;18.30;100461.00;;;;2074810;28;20213;-59
2022/02/24 02:18:04;;;;;;;1.83;1.40;;;;;18.30;100457.00;;;;2074614;28;20290;-59
2022/02/24 02:19:04;;;;;;;1.60;1.10;;;;;18.30;100453.00;;;;2072221;28;20218;-59
2022/02/24 02:20:05;;;;;;;2.00;1.23;;;;;18.30;100448.00;;;;2074965;28;20217;-59
2022/02/24 02:21:05;;;;;;;1.60;1.20;;;;;18.30;100436.00;;;;2070329;28;20213;-59
2022/02/24 02:22:06;;;;;;;3.53;1.20;;;;;18.30;100449.00;;;;2074789;28;20219;-59
2022/02/24 02:23:06;;;;;;;1.40;1.00;;;;;18.30;100446.00;;;;2074876;28;20218;-59
2022/02/24 02:24:06;;;;;;;2.10;1.10;;;;;18.30;100444.00;;;;2074753;28;20716;-59
2022/02/24 02:25:07;;;;;;;1.77;1.10;;;;;18.30;100440.00;;;;2073139;28;20288;-59
2022/02/24 02:26:07;;;;;;;1.77;1.10;;;;;18.30;100434.00;;;;2074324;28;20218;-59
2022/02/24 02:27:08;;;;;;;1.80;1.20;;;;;18.30;100434.00;;;;2074761;28;20251;-59
2022/02/24 02:28:08;;;;;;;2.23;1.40;;;;;18.30;100428.00;;;;2074874;28;20223;-59
2022/02/24 02:29:09;;;;;;;1.60;1.10;;;;;18.30;100430.00;;;;2074485;28;20225;-59
2022/02/24 02:30:10;;;;;;;1.55;1.10;;;;;18.30;100428.00;;;;2075737;28;20568;-59
2022/02/24 02:31:10;;;;;;;1.80;1.30;;;;;18.30;100426.00;;;;2075440;28;20226;-59
2022/02/24 02:32:11;;;;;;;1.63;1.10;;;;;18.30;100419.00;;;;2075364;28;20222;-59
2022/02/24 02:33:11;;;;;;;1.60;1.10;;;;;18.30;100424.00;;;;2075237;28;20229;-59
2022/02/24 02:34:13;;;;;;;1.60;1.00;;;;;18.30;100420.00;;;;2074557;28;20296;-59
2022/02/24 02:35:13;;;;;;;2.28;1.38;;;;;18.30;100422.00;;;;2073970;28;20217;-59
2022/02/24 02:36:14;;;;;;;1.40;1.00;;;;;18.30;100423.00;;;;2074646;28;20218;-59
2022/02/24 02:37:14;;;;;;;2.30;1.00;;;;;18.30;100420.00;;;;2075571;28;20276;-59
2022/02/24 02:38:14;;;;;;;1.30;0.93;;;;;18.30;100419.00;;;;2076114;28;20210;-59
2022/02/24 02:39:15;;;;;;;1.90;1.23;;;;;18.30;100411.00;;;;2076025;28;20295;-59
2022/02/24 02:40:15;;;;;;;1.60;1.03;;;;;18.30;100413.00;;;;2073360;28;20217;-59
2022/02/24 02:41:15;;;;;;;1.23;1.00;;;;;18.30;100417.00;;;;2075872;28;20217;-59
2022/02/24 02:42:16;;;;;;;1.83;1.40;;;;;18.30;100416.00;;;;2075309;28;20245;-59
2022/02/24 02:43:16;;;;;;;1.93;1.10;;;;;18.30;100424.00;;;;2075149;28;20217;-59
2022/02/24 02:44:16;;;;;;;1.30;0.90;;;;;18.30;100416.00;;;;2075203;28;20205;-59
2022/02/24 02:45:17;;;;;;;1.63;1.07;;;;;18.30;100412.00;;;;2072271;28;20241;-59
2022/02/24 02:46:17;;;;;;;2.00;1.00;;;;;18.30;100416.00;;;;2076019;28;20942;-59
2022/02/24 02:47:18;;;;;;;2.50;1.33;;;;;18.30;100416.00;;;;2076172;28;20214;-59
2022/02/24 02:48:18;;;;;;;1.47;1.20;;;;;18.30;100410.00;;;;2074832;28;20260;-59
2022/02/24 02:49:18;;;;;;;1.60;1.30;;;;;18.30;100416.00;;;;2076056;28;20283;-59
2022/02/24 02:50:18;;;;;;;1.23;0.87;;;;;18.30;100420.00;;;;2072214;28;20241;-59
2022/02/24 02:51:19;;;;;;;2.20;1.37;;;;;18.30;100400.00;;;;2074439;28;20217;-59
2022/02/24 02:52:19;;;;;;;1.43;0.97;;;;;18.30;100412.00;;;;2073839;28;20217;-59
2022/02/24 02:53:20;;;;;;;2.10;1.10;;;;;18.30;100411.00;;;;2073927;28;20245;-59
2022/02/24 02:54:20;;;;;;;1.17;0.77;;;;;18.30;100408.00;;;;2075330;28;20462;-59
2022/02/24 02:55:20;;;;;;;1.43;0.93;;;;;18.30;100406.00;;;;2072255;28;20225;-59
2022/02/24 02:56:21;;;;;;;1.27;1.07;;;;;18.30;100405.00;;;;2074662;28;20210;-59
2022/02/24 02:57:21;;;;;;;1.40;1.17;;;;;18.30;100398.00;;;;2074936;28;20309;-59
2022/02/24 02:58:21;;;;;;;2.17;1.10;;;;;18.30;100405.00;;;;2074470;28;20226;-59
2022/02/24 02:59:22;;;;;;;2.40;1.10;;;;;18.30;100402.00;;;;2071082;28;20325;-59
2022/02/24 03:00:22;;;;;;;1.20;0.90;;;;;18.30;100387.00;;;;2074605;28;20226;-59
2022/02/24 03:01:22;;;;;;;2.40;1.07;;;;;18.30;100380.00;;;;2074609;28;20205;-59
2022/02/24 03:02:23;;;;;;;1.37;1.00;;;;;18.30;100392.00;;;;2074218;28;20320;-59
2022/02/24 03:03:24;;;;;;;1.30;0.87;;;;;18.30;100395.00;;;;2066496;28;20298;-59
2022/02/24 03:04:25;;;;;;;2.70;0.93;;;;;18.20;100381.00;;;;2066679;28;20211;-59
2022/02/24 03:05:25;;;;;;;1.30;1.10;;;;;18.30;100394.00;;;;2075668;28;20236;-59
2022/02/24 03:06:26;;;;;;;1.70;1.37;;;;;18.30;100392.00;;;;2075328;28;20700;-59
2022/02/24 03:07:26;;;;;;;1.10;0.83;;;;;18.30;100373.00;;;;2066179;28;20704;-59
2022/02/24 03:08:26;;;;;;;1.30;0.90;;;;;18.30;100387.00;;;;2065792;28;20289;-59
2022/02/24 03:09:27;;;;;;;1.97;1.17;;;;;18.30;100391.00;;;;2074574;28;20215;-59
2022/02/24 03:10:27;;;;;;;1.43;0.97;;;;;18.30;100388.00;;;;2073469;28;20210;-59
2022/02/24 03:11:27;;;;;;;1.60;1.10;;;;;18.30;100387.00;;;;2074455;28;20206;-59
2022/02/24 03:12:28;;;;;;;1.60;1.20;;;;;18.30;100390.00;;;;2077136;28;20236;-59
2022/02/24 03:13:28;;;;;;;1.70;1.27;;;;;18.20;100381.00;;;;2074930;28;20438;-59
2022/02/24 03:14:29;;;;;;;1.30;0.90;;;;;18.30;100385.00;;;;2075003;28;20217;-59
2022/02/24 03:15:29;;;;;;;2.20;1.10;;;;;18.30;100380.00;;;;2074819;28;20225;-59
2022/02/24 03:16:29;;;;;;;2.50;1.20;;;;;18.30;100374.00;;;;2074757;28;20647;-59
2022/02/24 03:17:30;;;;;;;1.00;0.77;;;;;18.30;100367.00;;;;2075592;28;20605;-59
2022/02/24 03:18:30;;;;;;;1.40;1.10;;;;;18.30;100381.00;;;;2075304;28;20233;-59
2022/02/24 03:19:30;;;;;;;1.40;0.90;;;;;18.30;100385.00;;;;2073815;28;25327;-59
2022/02/24 03:20:32;;;;;;;1.70;0.90;;;;;18.30;100373.00;;;;2073198;28;20231;-59
2022/02/24 03:21:33;;;;;;;1.90;1.13;;;;;18.30;100376.00;;;;2074726;28;20225;-59
2022/02/24 03:22:33;;;;;;;1.40;1.00;;;;;18.30;100381.00;;;;2074519;28;20554;-59
2022/02/24 03:23:33;;;;;;;1.60;0.97;;;;;18.20;100364.00;;;;2074583;28;20717;-59
2022/02/24 03:24:34;;;;;;;1.60;1.10;;;;;18.30;100373.00;;;;2075765;28;20225;-59
2022/02/24 03:25:34;;;;;;;2.10;1.10;;;;;18.30;100372.00;;;;2075325;28;20761;-59
2022/02/24 03:26:35;;;;;;;1.47;1.23;;;;;18.30;100361.00;;;;2075876;28;20217;-59
2022/02/24 03:27:35;;;;;;;1.43;1.10;;;;;18.20;100359.00;;;;2075812;28;20213;-59
2022/02/24 03:28:35;;;;;;;2.00;1.20;;;;;18.20;100348.00;;;;2075123;28;20212;-59
2022/02/24 03:29:35;;;;;;;1.80;1.17;;;;;18.30;100348.00;;;;2075103;28;20279;-59
2022/02/24 03:30:37;;;;;;;1.77;0.87;;;;;18.20;100352.00;;;;2074796;28;20241;-59
2022/02/24 03:31:38;;;;;;;1.10;0.90;;;;;18.20;100362.00;;;;2075035;28;20218;-59
2022/02/24 03:32:38;;;;;;;1.50;1.40;;;;;18.30;100350.00;;;;2074445;28;20206;-59
2022/02/24 03:33:38;;;;;;;1.80;1.10;;;;;18.30;100351.00;;;;2074264;28;20308;-59
2022/02/24 03:34:40;;;;;;;1.60;1.30;;;;;18.20;100346.00;;;;2074270;28;20213;-59
2022/02/24 03:35:43;;;;;;;1.45;1.00;;;;;18.30;100341.00;;;;2073905;28;20214;-59
2022/02/24 03:36:43;;;;;;;1.38;1.10;;;;;18.30;100345.00;;;;2074672;28;20222;-59
2022/02/24 03:37:43;;;;;;;1.37;1.10;;;;;18.30;100337.00;;;;2075336;28;20214;-59
2022/02/24 03:38:44;;;;;;;2.43;1.10;;;;;18.20;100335.00;;;;2074891;28;20221;-59
2022/02/24 03:39:44;;;;;;;3.07;1.20;;;;;18.20;100326.00;;;;2075267;28;20209;-59
2022/02/24 03:40:45;;;;;;;1.83;1.20;;;;;18.20;100342.00;;;;2074699;28;20294;-59
2022/02/24 03:41:45;;;;;;;1.10;0.93;;;;;18.20;100339.00;;;;2074656;28;21041;-59
2022/02/24 03:42:45;;;;;;;2.57;1.30;;;;;18.20;100344.00;;;;2074288;28;20760;-59
2022/02/24 03:43:46;;;;;;;1.20;1.00;;;;;18.20;100335.00;;;;2074887;28;20218;-59
2022/02/24 03:44:47;;;;;;;1.60;1.20;;;;;18.20;100313.00;;;;2070463;28;20584;-59
2022/02/24 03:45:47;;;;;;;2.30;1.30;;;;;18.20;100311.00;;;;2074930;28;20802;-59
2022/02/24 03:46:47;;;;;;;1.33;1.00;;;;;18.30;100335.00;;;;2077468;28;20709;-59
2022/02/24 03:47:48;;;;;;;2.53;1.10;;;;;18.20;100319.00;;;;2076527;28;20763;-59
2022/02/24 03:48:48;;;;;;;1.47;1.07;;;;;18.30;100325.00;;;;2076510;28;20255;-59
2022/02/24 03:49:49;;;;;;;1.47;1.10;;;;;18.20;100334.00;;;;2073714;28;20248;-59
2022/02/24 03:50:49;;;;;;;1.40;1.20;;;;;18.20;100337.00;;;;2076015;28;20224;-59
2022/02/24 03:51:51;;;;;;;1.70;1.10;;;;;18.30;100325.00;;;;2076372;28;20217;-59
2022/02/24 03:52:51;;;;;;;1.30;1.00;;;;;18.20;100326.00;;;;2076645;28;20624;-59
2022/02/24 03:53:51;;;;;;;1.30;0.80;;;;;18.20;100322.00;;;;2077268;28;20296;-59
2022/02/24 03:54:51;;;;;;;2.47;1.30;;;;;18.20;100320.00;;;;2077379;28;20210;-57
2022/02/24 03:55:52;;;;;;;3.90;1.10;;;;;18.20;100305.00;;;;2077050;28;20219;-59
2022/02/24 03:56:52;;;;;;;1.50;1.03;;;;;18.20;100309.00;;;;2077254;28;20260;-59
2022/02/24 03:57:52;;;;;;;1.40;1.20;;;;;18.20;100314.00;;;;2076439;28;20213;-59
2022/02/24 03:58:53;;;;;;;1.77;1.10;;;;;18.20;100313.00;;;;2076477;28;20216;-59
2022/02/24 03:59:53;;;;;;;1.63;1.00;;;;;18.20;100312.00;;;;2076513;28;20225;-59
2022/02/24 04:00:53;;;;;;;1.10;1.00;;;;;18.20;100302.00;;;;2076051;28;20225;-59
2022/02/24 04:01:56;;;;;;;2.03;0.90;;;;;18.20;100305.00;;;;2077065;28;20217;-59
2022/02/24 04:02:56;;;;;;;1.10;1.00;;;;;18.20;100309.00;;;;2077382;28;20202;-59
2022/02/24 04:03:56;;;;;;;1.70;1.33;;;;;18.20;100304.00;;;;2077228;28;20202;-59
2022/02/24 04:04:57;;;;;;;1.40;1.20;;;;;18.20;100298.00;;;;2077253;28;20210;-59
2022/02/24 04:05:57;;;;;;;2.60;1.20;;;;;18.20;100298.00;;;;2076539;28;20213;-59
2022/02/24 04:06:58;;;;;;;2.17;1.20;;;;;18.20;100303.00;;;;2076387;28;20296;-59
2022/02/24 04:07:58;;;;;;;1.80;0.87;;;;;18.20;100294.00;;;;2076540;28;20209;-59
2022/02/24 04:08:58;;;;;;;1.60;1.10;;;;;18.20;100294.00;;;;2077370;28;20738;-59
2022/02/24 04:09:59;;;;;;;1.70;1.30;;;;;18.20;100295.00;;;;2076758;28;20213;-59
2022/02/24 04:10:59;;;;;;;1.43;1.13;;;;;18.20;100300.00;;;;2077226;28;20218;-59
2022/02/24 04:11:59;;;;;;;1.50;1.00;;;;;18.20;100293.00;;;;2076012;28;20214;-59
2022/02/24 04:13:00;;;;;;;1.47;1.00;;;;;18.20;100296.00;;;;2076390;28;20297;-59
2022/02/24 04:14:01;;;;;;;1.57;0.93;;;;;18.20;100290.00;;;;2076467;28;20218;-59
2022/02/24 04:15:01;;;;;;;2.85;1.30;;;;;18.20;100288.00;;;;2074491;28;20242;-59
2022/02/24 04:16:02;;;;;;;1.83;1.33;;;;;18.20;100286.00;;;;2076838;28;20218;-59
2022/02/24 04:17:02;;;;;;;1.20;1.00;;;;;18.20;100285.00;;;;2077112;28;20209;-59
2022/02/24 04:18:03;;;;;;;1.77;1.17;;;;;18.20;100288.00;;;;2075917;28;21022;-59
2022/02/24 04:19:04;;;;;;;2.28;1.00;;;;;18.20;100287.00;;;;2075590;28;20228;-59
2022/02/24 04:20:04;;;;;;;2.37;1.10;;;;;18.20;100275.00;;;;2075860;28;20272;-59
2022/02/24 04:21:05;;;;;;;1.00;0.90;;;;;18.20;100288.00;;;;2074209;28;20218;-59
2022/02/24 04:22:05;;;;;;;2.67;1.40;;;;;18.20;100280.00;;;;2076405;28;20217;-59
2022/02/24 04:23:05;;;;;;;1.17;0.97;;;;;18.20;100282.00;;;;2076756;28;20210;-59
2022/02/24 04:24:06;;;;;;;2.07;1.37;;;;;18.20;100286.00;;;;2076488;28;20222;-59
2022/02/24 04:25:07;;;;;;;1.83;0.90;;;;;18.20;100280.00;;;;2074749;28;20820;-59
2022/02/24 04:26:08;;;;;;;1.30;1.00;;;;;18.20;100278.00;;;;2077054;28;20214;-59
2022/02/24 04:27:08;;;;;;;2.00;1.10;;;;;18.20;100279.00;;;;2076246;28;20615;-60
2022/02/24 04:28:09;;;;;;;1.80;1.10;;;;;18.20;100279.00;;;;2076232;28;20263;-60
2022/02/24 04:29:09;;;;;;;1.93;1.17;;;;;18.20;100272.00;;;;2076267;28;20240;-59
2022/02/24 04:30:10;;;;;;;1.93;1.20;;;;;18.20;100271.00;;;;2076317;28;20261;-59
2022/02/24 04:31:10;;;;;;;1.20;1.00;;;;;18.20;100275.00;;;;2076464;28;20253;-59
2022/02/24 04:32:10;;;;;;;1.10;0.90;;;;;18.20;100276.00;;;;2076969;28;20217;-59
2022/02/24 04:33:11;;;;;;;1.93;1.20;;;;;18.20;100273.00;;;;2076866;28;20289;-59
2022/02/24 04:34:11;;;;;;;1.83;1.33;;;;;18.20;100277.00;;;;2076915;28;20217;-59
2022/02/24 04:35:12;;;;;;;2.10;1.03;;;;;18.20;100276.00;;;;2074481;28;20215;-59
2022/02/24 04:36:12;;;;;;;2.07;0.80;;;;;18.20;100263.00;;;;2075544;28;20221;-59
2022/02/24 04:37:12;;;;;;;2.13;1.20;;;;;18.20;100270.00;;;;2075120;28;20600;-59
2022/02/24 04:38:13;;;;;;;1.50;1.40;;;;;18.20;100254.00;;;;2074816;28;20610;-59
2022/02/24 04:39:13;;;;;;;2.00;1.40;;;;;18.20;100272.00;;;;2075823;28;20222;-59
2022/02/24 04:40:14;;;;;;;2.03;1.40;;;;;18.20;100268.00;;;;2074395;28;20245;-59
2022/02/24 04:41:14;;;;;;;1.67;1.20;;;;;18.20;100271.00;;;;2075811;28;20280;-59
2022/02/24 04:42:15;;;;;;;0.80;0.70;;;;;18.20;100272.00;;;;2075728;28;20248;-59
2022/02/24 04:43:15;;;;;;;1.80;1.03;;;;;18.20;100265.00;;;;2076648;28;20213;-59
2022/02/24 04:44:15;;;;;;;1.53;0.90;;;;;18.20;100265.00;;;;2075547;28;20213;-59
2022/02/24 04:45:16;;;;;;;1.47;0.90;;;;;18.20;100261.00;;;;2072877;28;20244;-59
2022/02/24 04:46:16;;;;;;;1.63;1.20;;;;;18.20;100254.00;;;;2075664;28;20224;-59
2022/02/24 04:47:16;;;;;;;2.03;1.10;;;;;18.20;100254.00;;;;2075339;28;20228;-59
2022/02/24 04:48:18;;;;;;;2.00;1.47;;;;;18.20;100254.00;;;;2073952;28;20210;-59
2022/02/24 04:49:19;;;;;;;1.90;1.00;;;;;18.20;100256.00;;;;2076394;28;20581;-59
2022/02/24 04:50:19;;;;;;;1.00;0.77;;;;;18.20;100247.00;;;;2074000;28;20224;-59
2022/02/24 04:51:19;;;;;;;2.27;1.40;;;;;18.20;100245.00;;;;2076544;28;20217;-59
2022/02/24 04:52:20;;;;;;;1.50;1.00;;;;;18.20;100246.00;;;;2076403;28;20245;-59
2022/02/24 04:53:20;;;;;;;1.47;1.10;;;;;18.20;100244.00;;;;2076051;28;20233;-59
2022/02/24 04:54:20;;;;;;;1.97;1.37;;;;;18.20;100237.00;;;;2075870;28;20213;-59
2022/02/24 04:55:21;;;;;;;1.30;1.00;;;;;18.20;100239.00;;;;2075512;28;20230;-59
2022/02/24 04:56:21;;;;;;;1.63;1.17;;;;;18.20;100243.00;;;;2075676;28;20249;-59
2022/02/24 04:57:22;;;;;;;1.83;1.03;;;;;18.20;100232.00;;;;2075140;28;20222;-59
2022/02/24 04:58:22;;;;;;;1.63;1.07;;;;;18.20;100235.00;;;;2075560;28;20224;-59
2022/02/24 04:59:22;;;;;;;1.47;1.10;;;;;18.20;100228.00;;;;2076064;28;20245;-59